Time;durP1;ratioP1;P1;durP2;ratioP2;P2;SDS_P1;SDS_P2;PMS_P1;PMS_P2;Temp;Humidity;BMP_temperature;BMP_pressure;BME280_temperature;BME280_humidity;BME280_pressure;Samples;Min_cycle;Max_cycle;Signal;HPM_P1;HPM_P2
2021/07/23 00:00:28;;;;;;;2.10;2.00;;;28.10;49.70;;;;;;5004218;28;20415;-77
2021/07/23 00:02:56;;;;;;;2.10;2.00;;;28.10;49.70;;;;;;5004115;28;20422;-79
2021/07/23 00:05:24;;;;;;;1.80;1.80;;;28.10;49.60;;;;;;5004823;28;20415;-79
2021/07/23 00:07:53;;;;;;;1.80;1.70;;;28.10;49.60;;;;;;5014694;28;20452;-77
2021/07/23 00:10:21;;;;;;;1.53;1.43;;;28.10;49.60;;;;;;5012762;28;20441;-78
2021/07/23 00:12:49;;;;;;;1.90;1.80;;;28.10;49.50;;;;;;5011694;28;20420;-78
2021/07/23 00:15:17;;;;;;;1.87;1.77;;;28.10;49.40;;;;;;5012843;28;20459;-78
2021/07/23 00:17:45;;;;;;;2.47;2.10;;;28.10;49.40;;;;;;5016960;28;20513;-78
2021/07/23 00:20:14;;;;;;;1.70;1.60;;;28.10;49.50;;;;;;5013892;28;20463;-76
2021/07/23 00:22:44;;;;;;;1.83;1.73;;;28.00;49.50;;;;;;5011620;28;20444;-76
2021/07/23 00:25:13;;;;;;;1.77;1.67;;;28.00;49.50;;;;;;5015564;28;20502;-77
2021/07/23 00:27:42;;;;;;;1.50;1.50;;;28.00;49.30;;;;;;5011660;28;20399;-77
2021/07/23 00:30:10;;;;;;;1.70;1.60;;;28.00;49.40;;;;;;5012711;28;20542;-77
2021/07/23 00:32:40;;;;;;;1.40;1.40;;;27.90;49.20;;;;;;5013529;28;20531;-77
2021/07/23 00:35:09;;;;;;;2.30;2.20;;;28.00;49.10;;;;;;5012739;28;20456;-77
2021/07/23 00:37:37;;;;;;;2.17;2.00;;;27.90;49.10;;;;;;5015671;28;20550;-78
2021/07/23 00:40:06;;;;;;;1.63;1.53;;;27.90;49.10;;;;;;5015507;28;20521;-78
2021/07/23 00:42:36;;;;;;;1.77;1.77;;;27.90;49.00;;;;;;5015730;28;20406;-77
2021/07/23 00:45:05;;;;;;;1.70;1.70;;;27.90;49.00;;;;;;5015329;28;20439;-77
2021/07/23 00:47:33;;;;;;;1.90;1.80;;;27.90;48.70;;;;;;5016126;28;20402;-77
2021/07/23 00:50:02;;;;;;;2.60;1.90;;;27.90;48.70;;;;;;5017458;28;20422;-77
2021/07/23 00:52:30;;;;;;;1.80;1.70;;;27.90;48.60;;;;;;5015214;28;20531;-77
2021/07/23 00:54:57;;;;;;;3.23;1.70;;;27.90;48.60;;;;;;5017837;28;20432;-77
2021/07/23 00:57:25;;;;;;;2.10;1.90;;;27.90;48.70;;;;;;5015549;28;20507;-77
2021/07/23 00:59:55;;;;;;;1.60;1.50;;;27.80;48.60;;;;;;5016202;28;20414;-77
2021/07/23 01:02:23;;;;;;;1.73;1.63;;;27.90;48.60;;;;;;5017476;28;20441;-77
2021/07/23 01:04:51;;;;;;;2.13;1.70;;;27.90;48.50;;;;;;5014312;28;20422;-77
2021/07/23 01:07:19;;;;;;;1.77;1.63;;;27.90;48.30;;;;;;5021452;28;20427;-77
2021/07/23 01:09:47;;;;;;;1.87;1.77;;;27.90;48.20;;;;;;5022170;28;20427;-77
2021/07/23 01:12:15;;;;;;;1.93;1.83;;;27.90;48.30;;;;;;5009330;28;20495;-78
2021/07/23 01:14:43;;;;;;;1.80;1.80;;;27.80;48.10;;;;;;5006309;28;20464;-77
2021/07/23 01:17:12;;;;;;;2.17;2.03;;;27.80;48.20;;;;;;5013994;28;20469;-78
2021/07/23 01:19:43;;;;;;;2.17;2.07;;;27.80;48.30;;;;;;5026003;28;20418;-77
2021/07/23 01:22:11;;;;;;;3.23;1.93;;;27.80;48.70;;;;;;5025589;28;20441;-77
2021/07/23 01:24:40;;;;;;;1.73;1.63;;;27.80;47.90;;;;;;5026203;28;20449;-77
2021/07/23 01:27:08;;;;;;;2.50;2.10;;;27.80;48.00;;;;;;5026006;28;20418;-78
2021/07/23 01:29:36;;;;;;;1.83;1.73;;;27.80;47.90;;;;;;5026082;28;20490;-77
2021/07/23 01:32:04;;;;;;;2.00;1.90;;;27.80;48.10;;;;;;5025639;28;20447;-77
2021/07/23 01:34:32;;;;;;;2.10;2.00;;;27.80;48.60;;;;;;5026112;28;20476;-76
2021/07/23 01:37:03;;;;;;;2.00;1.90;;;27.80;48.00;;;;;;5025766;28;20464;-77
2021/07/23 01:39:31;;;;;;;2.20;1.77;;;27.80;47.80;;;;;;5026123;28;20476;-77
2021/07/23 01:42:00;;;;;;;2.40;1.73;;;27.80;47.80;;;;;;5025923;28;20448;-77
2021/07/23 01:44:28;;;;;;;2.03;1.93;;;27.80;47.80;;;;;;5025585;28;20439;-77
2021/07/23 01:46:56;;;;;;;1.80;1.70;;;27.80;47.80;;;;;;5024588;28;20463;-77
2021/07/23 01:49:24;;;;;;;2.13;2.03;;;27.80;47.80;;;;;;5025973;28;20482;-77
2021/07/23 01:51:52;;;;;;;2.20;2.00;;;27.80;47.80;;;;;;5025510;28;20470;-77
2021/07/23 01:54:20;;;;;;;1.73;1.63;;;27.80;47.80;;;;;;5025487;28;20414;-77
2021/07/23 01:56:48;;;;;;;2.03;1.93;;;27.80;47.70;;;;;;5025252;28;20452;-76
2021/07/23 01:59:17;;;;;;;1.90;1.90;;;27.80;47.80;;;;;;5025260;28;20517;-76
2021/07/23 02:01:45;;;;;;;2.20;2.10;;;27.80;47.70;;;;;;5025136;28;20468;-76
2021/07/23 02:04:13;;;;;;;1.90;1.80;;;27.80;47.90;;;;;;5025109;28;20413;-77
2021/07/23 02:06:41;;;;;;;2.10;2.00;;;27.80;47.90;;;;;;5024917;28;20447;-76
2021/07/23 02:09:09;;;;;;;2.13;2.03;;;27.80;48.00;;;;;;5024981;28;20542;-76
2021/07/23 02:11:37;;;;;;;2.00;1.90;;;27.80;47.90;;;;;;5025170;28;20505;-77
2021/07/23 02:14:07;;;;;;;2.30;1.93;;;27.80;48.00;;;;;;5023714;28;20550;-72
2021/07/23 02:16:36;;;;;;;2.27;2.17;;;27.80;47.90;;;;;;5024815;28;20428;-72
2021/07/23 02:19:06;;;;;;;2.00;1.90;;;27.70;48.10;;;;;;5032359;28;20492;-72
2021/07/23 02:21:34;;;;;;;2.10;2.00;;;27.70;48.00;;;;;;5032793;28;20474;-72
2021/07/23 02:24:02;;;;;;;2.67;2.03;;;27.70;47.90;;;;;;5033849;28;20406;-72
2021/07/23 02:26:30;;;;;;;2.10;2.00;;;27.80;47.80;;;;;;5026183;28;20431;-72
2021/07/23 02:28:58;;;;;;;2.00;1.90;;;27.80;47.80;;;;;;5031671;28;20440;-72
2021/07/23 02:31:26;;;;;;;2.13;1.93;;;27.80;48.00;;;;;;5022612;28;20544;-72
2021/07/23 02:33:55;;;;;;;2.00;1.90;;;27.70;47.90;;;;;;5030394;28;20414;-72
2021/07/23 02:36:23;;;;;;;1.70;1.70;;;27.70;47.80;;;;;;5023666;28;20426;-72
2021/07/23 02:38:51;;;;;;;2.07;1.97;;;27.80;48.00;;;;;;5023082;28;20584;-72
2021/07/23 02:41:19;;;;;;;1.90;1.80;;;27.70;47.80;;;;;;5023551;28;20435;-72
2021/07/23 02:43:49;;;;;;;2.00;1.90;;;27.70;48.10;;;;;;5024267;28;20486;-72
2021/07/23 02:46:17;;;;;;;2.40;2.20;;;27.70;47.80;;;;;;5024427;28;20422;-72
2021/07/23 02:48:45;;;;;;;1.93;1.83;;;27.70;47.80;;;;;;5023965;28;20410;-72
2021/07/23 02:51:14;;;;;;;2.10;2.00;;;27.70;47.90;;;;;;5023558;28;20435;-72
2021/07/23 02:53:42;;;;;;;2.20;2.10;;;27.70;47.90;;;;;;5023800;28;20475;-72
2021/07/23 02:56:10;;;;;;;2.17;2.07;;;27.70;47.80;;;;;;5024189;28;20555;-72
2021/07/23 02:58:40;;;;;;;1.83;1.80;;;27.70;48.00;;;;;;5024363;28;20570;-72
2021/07/23 03:01:08;;;;;;;2.17;2.07;;;27.70;47.80;;;;;;5024093;28;20494;-72
2021/07/23 03:03:36;;;;;;;2.33;2.23;;;27.70;48.00;;;;;;5024462;28;20458;-72
2021/07/23 03:06:04;;;;;;;2.00;1.90;;;27.70;47.90;;;;;;5023981;28;20427;-72
2021/07/23 03:08:33;;;;;;;1.90;1.80;;;27.60;47.90;;;;;;5023827;28;20449;-72
2021/07/23 03:11:02;;;;;;;2.10;2.00;;;27.60;47.90;;;;;;5024432;28;20509;-72
2021/07/23 03:13:30;;;;;;;2.23;2.13;;;27.60;47.80;;;;;;5024616;28;20475;-72
2021/07/23 03:15:58;;;;;;;2.10;2.00;;;27.70;47.90;;;;;;5024269;28;20406;-72
2021/07/23 03:18:26;;;;;;;5.17;2.50;;;27.70;47.90;;;;;;5023984;28;20476;-72
2021/07/23 03:20:54;;;;;;;2.10;2.00;;;27.60;48.00;;;;;;5023621;28;20439;-72
2021/07/23 03:23:22;;;;;;;2.13;2.03;;;27.60;47.90;;;;;;5023805;28;20503;-72
2021/07/23 03:25:51;;;;;;;2.10;2.00;;;27.60;47.80;;;;;;5023217;28;20424;-72
2021/07/23 03:28:18;;;;;;;2.37;2.27;;;27.60;47.90;;;;;;5023708;28;20425;-72
2021/07/23 03:30:46;;;;;;;2.00;1.90;;;27.60;47.90;;;;;;5023225;28;20438;-72
2021/07/23 03:33:14;;;;;;;2.10;2.00;;;27.70;47.90;;;;;;5023419;28;20495;-72
2021/07/23 03:35:42;;;;;;;2.10;2.00;;;27.60;47.80;;;;;;5023296;28;20502;-72
2021/07/23 03:38:10;;;;;;;2.10;2.00;;;27.60;47.90;;;;;;5023575;28;20453;-72
2021/07/23 03:40:38;;;;;;;2.30;2.20;;;27.60;47.90;;;;;;5022935;28;20452;-72
2021/07/23 03:43:07;;;;;;;2.20;2.10;;;27.60;47.90;;;;;;5023397;28;20457;-72
2021/07/23 03:45:37;;;;;;;2.00;1.90;;;27.60;48.00;;;;;;5023567;28;20545;-72
2021/07/23 03:48:06;;;;;;;3.07;2.30;;;27.50;48.00;;;;;;5023728;28;20485;-72
2021/07/23 03:50:34;;;;;;;2.47;2.37;;;27.60;48.20;;;;;;5023529;28;20489;-72
2021/07/23 03:53:02;;;;;;;2.30;2.20;;;27.60;48.10;;;;;;5023473;28;20458;-72
2021/07/23 03:55:29;;;;;;;2.10;2.00;;;27.50;48.00;;;;;;5022887;28;20488;-72
2021/07/23 03:57:57;;;;;;;2.20;2.00;;;27.60;48.00;;;;;;5023417;28;20509;-72
2021/07/23 04:00:27;;;;;;;2.20;2.10;;;27.60;47.90;;;;;;5022143;28;20505;-72
2021/07/23 04:02:55;;;;;;;2.60;2.17;;;27.50;47.90;;;;;;5023227;28;20475;-72
2021/07/23 04:05:23;;;;;;;2.10;2.00;;;27.50;47.90;;;;;;5022510;28;20497;-72
2021/07/23 04:07:50;;;;;;;2.53;2.33;;;27.60;47.90;;;;;;5020418;28;20451;-72
2021/07/23 04:10:20;;;;;;;2.47;2.37;;;27.50;47.90;;;;;;5023375;28;20428;-72
2021/07/23 04:12:51;;;;;;;2.67;2.57;;;27.50;48.00;;;;;;5026971;28;20410;-72
2021/07/23 04:15:19;;;;;;;2.37;2.27;;;27.50;47.90;;;;;;5027005;28;20526;-72
2021/07/23 04:17:50;;;;;;;2.67;2.47;;;27.50;48.10;;;;;;5027501;28;20435;-72
2021/07/23 04:20:18;;;;;;;2.20;2.10;;;27.50;48.10;;;;;;5026882;28;20450;-72
2021/07/23 04:22:46;;;;;;;2.17;2.00;;;27.50;48.00;;;;;;5027255;28;20424;-72
2021/07/23 04:25:14;;;;;;;2.50;2.33;;;27.50;48.00;;;;;;5027904;28;20465;-72
2021/07/23 04:27:42;;;;;;;2.13;2.03;;;27.50;48.10;;;;;;5027450;28;20509;-72
2021/07/23 04:30:11;;;;;;;2.13;2.03;;;27.50;47.90;;;;;;5027125;28;20490;-72
2021/07/23 04:32:39;;;;;;;1.90;1.80;;;27.50;48.00;;;;;;5026878;28;20443;-72
2021/07/23 04:35:09;;;;;;;2.53;2.43;;;27.60;48.10;;;;;;5026726;28;20447;-72
2021/07/23 04:37:37;;;;;;;1.80;1.80;;;27.50;47.80;;;;;;5026337;28;20530;-72
2021/07/23 04:40:06;;;;;;;2.30;2.20;;;27.50;48.10;;;;;;5026131;28;20551;-72
2021/07/23 04:42:34;;;;;;;2.10;1.70;;;27.60;48.20;;;;;;5026628;28;20489;-72
2021/07/23 04:45:04;;;;;;;2.20;2.10;;;27.50;47.90;;;;;;5026969;28;20478;-72
2021/07/23 04:47:35;;;;;;;2.07;1.97;;;27.50;47.80;;;;;;5032226;28;20437;-72
2021/07/23 04:50:03;;;;;;;2.20;2.10;;;27.50;47.90;;;;;;5027465;28;20437;-72
2021/07/23 04:52:32;;;;;;;2.20;2.10;;;27.50;47.90;;;;;;5026490;28;20510;-72
2021/07/23 04:55:07;;;;;;;2.10;1.80;;;27.50;47.90;;;;;;5026324;28;20526;-72
2021/07/23 04:57:42;;;;;;;2.20;2.10;;;27.50;47.90;;;;;;5026508;28;20529;-72
2021/07/23 05:00:11;;;;;;;2.20;2.10;;;27.50;47.80;;;;;;5026378;28;20530;-72
2021/07/23 05:02:41;;;;;;;2.20;2.10;;;27.50;48.00;;;;;;5026643;28;20530;-72
2021/07/23 05:05:11;;;;;;;2.10;2.00;;;27.50;47.40;;;;;;5026752;28;20504;-72
2021/07/23 05:07:40;;;;;;;2.20;2.10;;;27.50;47.90;;;;;;5026447;28;20421;-72
2021/07/23 05:10:09;;;;;;;3.27;2.33;;;27.50;47.80;;;;;;5026768;28;20543;-72
2021/07/23 05:12:38;;;;;;;2.57;2.37;;;27.50;47.90;;;;;;5025806;28;20443;-72
2021/07/23 05:15:07;;;;;;;2.43;2.33;;;27.50;48.00;;;;;;5026188;28;20507;-72
2021/07/23 05:17:35;;;;;;;2.57;2.47;;;27.50;47.90;;;;;;5026199;28;20432;-72
2021/07/23 05:20:03;;;;;;;2.50;2.40;;;27.60;48.00;;;;;;5025879;28;20570;-72
2021/07/23 05:22:32;;;;;;;2.23;2.13;;;27.50;47.90;;;;;;5024901;28;20421;-72
2021/07/23 05:25:04;;;;;;;2.30;2.20;;;27.50;47.80;;;;;;5025990;28;20432;-72
2021/07/23 05:27:33;;;;;;;2.20;2.10;;;27.50;47.80;;;;;;5026423;28;20414;-72
2021/07/23 05:30:01;;;;;;;2.63;2.30;;;27.50;47.80;;;;;;5025835;28;20535;-72
2021/07/23 05:32:29;;;;;;;2.70;2.50;;;27.50;47.90;;;;;;5026228;28;20485;-72
2021/07/23 05:34:56;;;;;;;2.17;2.07;;;27.50;47.90;;;;;;5025880;28;20445;-72
2021/07/23 05:37:24;;;;;;;2.10;2.00;;;27.50;47.90;;;;;;5037321;28;20534;-72
2021/07/23 05:39:52;;;;;;;2.17;2.07;;;27.50;48.00;;;;;;5028671;28;20472;-77
2021/07/23 05:42:21;;;;;;;2.60;2.50;;;27.50;48.10;;;;;;5025681;28;20501;-76
2021/07/23 05:44:49;;;;;;;2.53;2.43;;;27.60;47.90;;;;;;5025921;28;20443;-76
2021/07/23 05:47:18;;;;;;;2.90;1.93;;;27.50;47.90;;;;;;5026342;28;20537;-77
2021/07/23 05:49:47;;;;;;;4.20;2.37;;;27.50;47.80;;;;;;5026267;28;20411;-76
2021/07/23 05:52:14;;;;;;;2.30;2.20;;;27.60;47.90;;;;;;5025954;28;20487;-77
2021/07/23 05:54:42;;;;;;;2.10;2.00;;;27.60;47.90;;;;;;5026195;28;20538;-77
2021/07/23 05:57:10;;;;;;;2.70;2.50;;;27.60;47.80;;;;;;5025609;28;20562;-77
2021/07/23 05:59:40;;;;;;;2.47;2.33;;;27.60;47.80;;;;;;5029585;28;20517;-77
2021/07/23 06:02:08;;;;;;;2.27;2.17;;;27.60;47.80;;;;;;5025412;28;20440;-76
2021/07/23 06:04:39;;;;;;;2.87;2.77;;;27.50;47.80;;;;;;5025796;28;20440;-77
2021/07/23 06:07:08;;;;;;;2.33;2.23;;;27.50;47.90;;;;;;5025194;28;20443;-77
2021/07/23 06:09:36;;;;;;;2.50;2.20;;;27.50;47.80;;;;;;5028697;28;20491;-77
2021/07/23 06:12:05;;;;;;;3.03;2.70;;;27.60;48.00;;;;;;5022711;28;20535;-77
2021/07/23 06:14:33;;;;;;;2.37;2.27;;;27.60;48.00;;;;;;5025368;28;20490;-77
2021/07/23 06:17:03;;;;;;;2.80;2.70;;;27.60;47.70;;;;;;5009618;28;20440;-77
2021/07/23 06:19:31;;;;;;;2.70;2.60;;;27.50;47.70;;;;;;5005865;28;20494;-77
2021/07/23 06:21:59;;;;;;;2.73;2.53;;;27.60;47.80;;;;;;5011848;28;20486;-77
2021/07/23 06:24:27;;;;;;;2.43;2.33;;;27.60;47.90;;;;;;5024823;28;20550;-77
2021/07/23 06:26:54;;;;;;;2.97;2.80;;;27.60;47.80;;;;;;5024729;28;20527;-77
2021/07/23 06:29:22;;;;;;;2.60;2.50;;;27.60;47.70;;;;;;5021563;28;20526;-77
2021/07/23 06:31:50;;;;;;;2.67;2.57;;;27.60;47.80;;;;;;5012976;28;20450;-77
2021/07/23 06:34:20;;;;;;;2.67;2.57;;;27.60;47.90;;;;;;5005357;28;20441;-77
2021/07/23 06:36:47;;;;;;;2.60;2.40;;;27.60;47.60;;;;;;5005776;28;20422;-77
2021/07/23 06:39:16;;;;;;;2.67;2.47;;;27.70;47.80;;;;;;5005608;28;20414;-77
2021/07/23 06:41:44;;;;;;;2.77;2.57;;;27.60;47.80;;;;;;5013162;28;20471;-76
2021/07/23 06:44:13;;;;;;;2.73;2.63;;;27.60;47.70;;;;;;5017377;28;20494;-77
2021/07/23 06:46:40;;;;;;;2.67;2.57;;;27.60;47.70;;;;;;5013057;28;20446;-77
2021/07/23 06:49:08;;;;;;;2.63;2.43;;;27.60;47.80;;;;;;5015161;28;20464;-77
2021/07/23 06:51:38;;;;;;;3.00;2.80;;;27.70;47.80;;;;;;5013095;28;20430;-77
2021/07/23 06:54:06;;;;;;;2.50;2.40;;;27.70;47.80;;;;;;5011464;28;20408;-75
2021/07/23 06:56:33;;;;;;;2.63;2.53;;;27.60;47.70;;;;;;5017959;28;20513;-76
2021/07/23 06:59:01;;;;;;;2.80;2.60;;;27.60;47.70;;;;;;5015568;28;20447;-78
2021/07/23 07:01:30;;;;;;;13.93;3.13;;;27.60;47.90;;;;;;5024408;28;20536;-79
2021/07/23 07:03:58;;;;;;;6.67;3.13;;;27.60;47.80;;;;;;5024407;28;20409;-78
2021/07/23 07:06:25;;;;;;;4.53;3.10;;;27.70;48.10;;;;;;5024632;28;20443;-80
2021/07/23 07:08:55;;;;;;;4.97;2.80;;;27.70;48.00;;;;;;5024553;28;20505;-80
2021/07/23 07:11:23;;;;;;;5.13;2.73;;;27.80;48.10;;;;;;5024649;28;20422;-81
2021/07/23 07:13:51;;;;;;;3.20;3.00;;;27.80;47.90;;;;;;5007086;28;20448;-80
2021/07/23 07:16:19;;;;;;;4.37;2.80;;;27.80;47.90;;;;;;5022848;28;20432;-81
2021/07/23 07:18:47;;;;;;;5.30;2.67;;;27.90;48.10;;;;;;5024216;28;20472;-80
2021/07/23 07:21:15;;;;;;;4.37;3.10;;;27.90;47.70;;;;;;5023867;28;20551;-81
2021/07/23 07:23:43;;;;;;;9.93;3.20;;;27.90;47.90;;;;;;5024684;28;20493;-79
2021/07/23 07:26:12;;;;;;;4.20;3.40;;;27.90;47.90;;;;;;5027520;28;20480;-80
2021/07/23 07:28:40;;;;;;;5.03;3.17;;;27.90;47.90;;;;;;5028436;28;20505;-81
2021/07/23 07:31:08;;;;;;;6.43;2.70;;;27.90;47.80;;;;;;5023754;28;20443;-80
2021/07/23 07:33:36;;;;;;;3.10;2.80;;;28.00;47.70;;;;;;5023797;28;20414;-82
2021/07/23 07:36:06;;;;;;;3.60;2.73;;;28.00;47.90;;;;;;5023872;28;20426;-81
2021/07/23 07:38:36;;;;;;;3.07;2.70;;;28.00;47.80;;;;;;5024268;28;20455;-81
2021/07/23 07:41:04;;;;;;;3.17;2.97;;;28.00;47.80;;;;;;5024089;28;20475;-82
2021/07/23 07:43:33;;;;;;;6.40;3.33;;;28.10;47.70;;;;;;5024295;28;20542;-82
2021/07/23 07:46:01;;;;;;;4.43;3.53;;;28.10;47.50;;;;;;5025963;28;20489;-81
2021/07/23 07:48:29;;;;;;;3.87;3.40;;;28.10;47.40;;;;;;5027741;28;20418;-81
2021/07/23 07:50:57;;;;;;;3.50;3.20;;;28.20;47.50;;;;;;5028095;28;20441;-81
2021/07/23 07:53:25;;;;;;;5.33;3.17;;;28.20;47.40;;;;;;5028040;28;20446;-81
2021/07/23 07:55:53;;;;;;;2.97;2.80;;;28.20;47.20;;;;;;5028016;28;20501;-80
2021/07/23 07:58:21;;;;;;;3.30;3.10;;;28.30;47.40;;;;;;5028603;28;20425;-81
2021/07/23 08:00:50;;;;;;;3.30;3.10;;;28.30;47.10;;;;;;5027839;28;20521;-80
2021/07/23 08:03:18;;;;;;;3.70;3.40;;;28.30;47.10;;;;;;5027619;28;20496;-81
2021/07/23 08:05:46;;;;;;;3.30;3.10;;;28.30;47.00;;;;;;5027767;28;20518;-81
2021/07/23 08:08:14;;;;;;;3.70;3.40;;;28.30;46.90;;;;;;5030523;28;20517;-81
2021/07/23 08:10:46;;;;;;;3.70;3.40;;;28.30;47.00;;;;;;5027861;28;20435;-80
2021/07/23 08:13:14;;;;;;;3.40;2.80;;;28.40;46.80;;;;;;5027905;28;20466;-80
2021/07/23 08:15:43;;;;;;;5.30;3.03;;;28.40;46.80;;;;;;5025680;28;20490;-81
2021/07/23 08:18:13;;;;;;;3.50;3.30;;;28.40;46.80;;;;;;5026144;28;20444;-81
2021/07/23 08:20:42;;;;;;;3.17;2.97;;;28.50;46.80;;;;;;5027923;28;20501;-81
2021/07/23 08:23:10;;;;;;;3.00;2.80;;;28.50;46.90;;;;;;5027512;28;20483;-81
2021/07/23 08:25:41;;;;;;;3.50;3.30;;;28.60;46.70;;;;;;5027672;28;20637;-81
2021/07/23 08:28:11;;;;;;;3.47;3.23;;;28.60;46.60;;;;;;5026971;28;20516;-81
2021/07/23 08:30:39;;;;;;;3.30;2.93;;;28.70;46.60;;;;;;5027607;28;20449;-82
2021/07/23 08:33:07;;;;;;;4.00;3.70;;;28.70;46.50;;;;;;5026826;28;20460;-82
2021/07/23 08:35:37;;;;;;;3.27;3.07;;;28.70;46.20;;;;;;5027404;28;20537;-78
2021/07/23 08:38:05;;;;;;;3.40;3.30;;;28.80;46.20;;;;;;5027988;28;20501;-78
2021/07/23 08:40:32;;;;;;;3.30;3.10;;;28.90;46.20;;;;;;5027572;28;20497;-78
2021/07/23 08:43:00;;;;;;;5.53;3.20;;;28.90;45.90;;;;;;5026762;28;20471;-78
2021/07/23 08:45:28;;;;;;;3.37;3.17;;;29.00;45.80;;;;;;5027213;28;20439;-79
2021/07/23 08:47:57;;;;;;;3.23;3.13;;;29.00;45.70;;;;;;5019476;28;20462;-78
2021/07/23 08:50:25;;;;;;;6.87;3.00;;;29.10;45.50;;;;;;5025913;28;20460;-76
2021/07/23 08:52:55;;;;;;;3.70;3.40;;;29.00;45.70;;;;;;5026974;28;20641;-76
2021/07/23 08:55:23;;;;;;;3.33;3.03;;;29.10;45.80;;;;;;5024355;28;20433;-75
2021/07/23 08:57:51;;;;;;;14.50;3.17;;;29.10;45.80;;;;;;5030043;28;20469;-76
2021/07/23 09:00:20;;;;;;;3.17;2.87;;;29.10;45.80;;;;;;5030829;28;20534;-75
2021/07/23 09:02:53;;;;;;;3.87;3.10;;;29.10;46.00;;;;;;5017982;28;20486;-74
2021/07/23 09:05:26;;;;;;;3.30;3.20;;;29.10;45.80;;;;;;5022262;28;20446;-74
2021/07/23 09:07:57;;;;;;;3.53;2.90;;;29.10;45.90;;;;;;5025766;28;20521;-74
2021/07/23 09:10:25;;;;;;;2.90;2.80;;;29.10;45.90;;;;;;5026932;28;20425;-75
2021/07/23 09:12:54;;;;;;;4.70;3.27;;;29.20;45.90;;;;;;5024068;28;20539;-74
2021/07/23 09:15:24;;;;;;;4.47;3.07;;;29.20;45.90;;;;;;5027208;28;20446;-75
2021/07/23 09:17:52;;;;;;;2.93;2.73;;;29.20;45.90;;;;;;5026113;28;20546;-75
2021/07/23 09:20:25;;;;;;;3.17;2.87;;;29.20;46.00;;;;;;5023174;28;20531;-77
2021/07/23 09:22:53;;;;;;;4.17;2.90;;;29.30;45.80;;;;;;5033638;28;20474;-76
2021/07/23 09:25:39;;;;;;;4.00;3.60;;;29.30;45.80;;;;;;5020612;28;20528;-75
2021/07/23 09:28:23;;;;;;;3.47;3.17;;;29.30;45.80;;;;;;5027694;28;20425;-75
2021/07/23 09:30:51;;;;;;;3.83;3.53;;;29.40;45.70;;;;;;5013513;28;20452;-76
2021/07/23 09:33:32;;;;;;;3.53;3.23;;;29.50;45.70;;;;;;5021209;28;20504;-75
2021/07/23 09:36:03;;;;;;;6.60;3.30;;;29.50;45.70;;;;;;5020715;28;20508;-74
2021/07/23 09:38:35;;;;;;;3.53;3.10;;;29.50;45.80;;;;;;5020909;28;20553;-76
2021/07/23 09:41:06;;;;;;;3.83;2.97;;;29.50;45.60;;;;;;5024989;28;20455;-77
2021/07/23 09:43:35;;;;;;;2.90;2.80;;;29.50;45.70;;;;;;5023227;28;20468;-76
2021/07/23 09:46:27;;;;;;;5.43;3.43;;;29.50;45.70;;;;;;5023550;28;20419;-76
2021/07/23 09:48:57;;;;;;;5.63;2.97;;;29.50;45.90;;;;;;5020988;28;20459;-76
2021/07/23 09:51:26;;;;;;;3.63;3.43;;;29.50;45.70;;;;;;5016263;28;20460;-76
2021/07/23 09:53:54;;;;;;;3.83;2.97;;;29.50;45.80;;;;;;5027323;28;20459;-76
2021/07/23 09:56:25;;;;;;;4.33;2.90;;;29.50;45.90;;;;;;5024658;28;20571;-76
2021/07/23 09:58:55;;;;;;;4.90;3.30;;;29.50;46.00;;;;;;5022535;28;20565;-77
2021/07/23 10:01:29;;;;;;;3.50;3.30;;;29.50;45.90;;;;;;5019845;28;20445;-76
2021/07/23 10:04:00;;;;;;;7.03;3.33;;;29.50;45.90;;;;;;5019499;28;20416;-76
2021/07/23 10:06:29;;;;;;;6.10;3.70;;;29.50;45.90;;;;;;5016441;28;20518;-76
2021/07/23 10:09:00;;;;;;;3.13;2.90;;;29.60;45.80;;;;;;5020662;28;20450;-76
2021/07/23 10:11:29;;;;;;;3.60;3.30;;;29.60;45.90;;;;;;5020352;28;20452;-75
2021/07/23 10:13:57;;;;;;;4.50;3.03;;;29.60;46.00;;;;;;5028552;28;20445;-75
2021/07/23 10:16:25;;;;;;;3.03;2.83;;;29.60;45.70;;;;;;5020699;28;20490;-75
2021/07/23 10:18:56;;;;;;;6.73;3.00;;;29.60;45.50;;;;;;5015216;28;20462;-75
2021/07/23 10:21:24;;;;;;;2.70;2.60;;;29.70;45.70;;;;;;5021160;28;20414;-76
2021/07/23 10:23:55;;;;;;;3.47;3.23;;;29.70;45.60;;;;;;5017275;28;20411;-76
2021/07/23 10:26:26;;;;;;;3.20;3.00;;;29.70;45.50;;;;;;5020179;28;20414;-76
2021/07/23 10:28:58;;;;;;;4.03;3.40;;;29.80;45.50;;;;;;5013981;28;20547;-75
2021/07/23 10:31:44;;;;;;;4.70;3.27;;;29.70;45.50;;;;;;5022303;28;20456;-76
2021/07/23 10:34:31;;;;;;;3.10;3.00;;;29.80;45.40;;;;;;5017769;28;20630;-76
2021/07/23 10:36:58;;;;;;;3.27;3.07;;;29.80;45.50;;;;;;5022947;28;20548;-76
2021/07/23 10:39:26;;;;;;;4.37;3.27;;;29.80;45.20;;;;;;5018988;28;20431;-76
2021/07/23 10:42:31;;;;;;;3.40;3.10;;;29.90;45.30;;;;;;5018737;28;20555;-76
2021/07/23 10:45:01;;;;;;;2.97;2.87;;;29.90;45.40;;;;;;5020593;28;20443;-76
2021/07/23 10:47:35;;;;;;;2.80;2.70;;;30.00;45.30;;;;;;5023157;28;20451;-76
2021/07/23 10:50:04;;;;;;;3.30;3.00;;;30.00;45.10;;;;;;5018458;28;20528;-75
2021/07/23 10:52:36;;;;;;;2.97;2.77;;;30.10;45.20;;;;;;5016363;28;20464;-76
2021/07/23 10:55:12;;;;;;;3.87;3.20;;;30.10;45.30;;;;;;5015102;28;20434;-76
2021/07/23 10:57:40;;;;;;;3.27;2.83;;;30.20;45.10;;;;;;5021609;28;20508;-75
2021/07/23 11:00:10;;;;;;;3.07;2.97;;;30.30;45.00;;;;;;5023221;28;20490;-76
2021/07/23 11:02:45;;;;;;;3.80;3.47;;;30.30;44.90;;;;;;5014142;28;20481;-78
2021/07/23 11:05:18;;;;;;;3.30;3.10;;;30.30;44.60;;;;;;5022792;28;20505;-78
2021/07/23 11:07:46;;;;;;;3.40;3.20;;;30.30;44.60;;;;;;5022253;28;20440;-79
2021/07/23 11:10:20;;;;;;;3.07;2.87;;;30.40;44.70;;;;;;5019304;28;20414;-79
2021/07/23 11:12:48;;;;;;;2.97;2.87;;;30.40;44.70;;;;;;5020283;28;20440;-80
2021/07/23 11:15:18;;;;;;;3.10;2.93;;;30.50;44.50;;;;;;5020782;28;20479;-80
2021/07/23 11:17:52;;;;;;;5.80;3.20;;;30.50;44.30;;;;;;5019223;28;20427;-80
2021/07/23 11:20:24;;;;;;;3.37;3.17;;;30.60;44.40;;;;;;5019950;28;20546;-80
2021/07/23 11:22:52;;;;;;;3.10;2.60;;;30.60;44.30;;;;;;5019298;28;20483;-79
2021/07/23 11:25:21;;;;;;;5.93;2.67;;;30.60;44.20;;;;;;5022453;28;20458;-80
2021/07/23 11:27:52;;;;;;;2.90;2.70;;;30.50;44.50;;;;;;5024899;28;20453;-80
2021/07/23 11:30:22;;;;;;;2.70;2.60;;;30.50;44.50;;;;;;5026285;28;20435;-78
2021/07/23 11:32:53;;;;;;;3.27;3.07;;;30.50;44.40;;;;;;5025614;28;20438;-78
2021/07/23 11:35:21;;;;;;;2.70;2.60;;;30.40;44.60;;;;;;5022078;28;20422;-78
2021/07/23 11:37:49;;;;;;;3.43;3.23;;;30.40;44.70;;;;;;5016298;28;20539;-77
2021/07/23 11:40:17;;;;;;;3.13;2.93;;;30.30;44.70;;;;;;5020451;28;20542;-78
2021/07/23 11:42:50;;;;;;;3.10;2.90;;;30.30;44.80;;;;;;5020702;28;20478;-78
2021/07/23 11:45:19;;;;;;;6.10;3.33;;;30.30;45.10;;;;;;5021332;28;20470;-76
2021/07/23 11:47:49;;;;;;;3.80;3.50;;;30.20;44.90;;;;;;5020984;28;20436;-78
2021/07/23 11:50:18;;;;;;;3.00;2.80;;;30.20;45.20;;;;;;5023282;28;20443;-77
2021/07/23 11:52:46;;;;;;;3.23;3.03;;;30.20;45.20;;;;;;5014527;28;20450;-79
2021/07/23 11:55:15;;;;;;;3.27;3.00;;;30.20;45.10;;;;;;5017977;28;20455;-79
2021/07/23 11:57:43;;;;;;;3.20;3.00;;;30.10;45.00;;;;;;5034368;28;20462;-76
2021/07/23 12:00:22;;;;;;;3.07;2.87;;;30.10;45.20;;;;;;5019425;28;20441;-77
2021/07/23 12:02:52;;;;;;;3.50;3.17;;;30.00;45.20;;;;;;5016781;28;20585;-77
2021/07/23 12:05:21;;;;;;;3.17;2.97;;;30.00;45.20;;;;;;5020983;28;20427;-77
2021/07/23 12:07:59;;;;;;;2.90;2.70;;;30.00;45.20;;;;;;5018519;28;20435;-77
2021/07/23 12:10:27;;;;;;;2.87;2.77;;;30.00;45.20;;;;;;5019128;28;20489;-77
2021/07/23 12:12:55;;;;;;;2.87;2.77;;;30.00;45.20;;;;;;5018208;28;20398;-77
2021/07/23 12:15:23;;;;;;;4.10;2.70;;;30.00;45.30;;;;;;5020286;28;20424;-77
2021/07/23 12:17:53;;;;;;;2.93;2.73;;;30.00;45.20;;;;;;5022119;28;20442;-80
2021/07/23 12:20:27;;;;;;;2.87;2.67;;;30.00;45.10;;;;;;5020987;28;20457;-80
2021/07/23 12:22:58;;;;;;;3.10;2.90;;;30.00;45.30;;;;;;5018018;28;20480;-81
2021/07/23 12:25:28;;;;;;;2.60;2.40;;;30.00;45.20;;;;;;5028599;28;20398;-77
2021/07/23 12:28:06;;;;;;;5.43;2.80;;;30.00;45.50;;;;;;5031873;28;20423;-80
2021/07/23 12:30:34;;;;;;;7.53;2.93;;;30.00;45.70;;;;;;5029431;28;20485;-77
2021/07/23 12:33:14;;;;;;;5.27;3.10;;;29.90;45.60;;;;;;5031401;28;20440;-81
2021/07/23 12:35:42;;;;;;;7.83;3.07;;;30.00;45.70;;;;;;5017408;28;20495;-78
2021/07/23 12:38:10;;;;;;;6.93;2.93;;;30.10;45.70;;;;;;5018630;28;20443;-78
2021/07/23 12:40:48;;;;;;;6.13;3.30;;;30.10;45.50;;;;;;5018839;28;20432;-76
2021/07/23 12:43:17;;;;;;;8.20;2.87;;;30.10;45.70;;;;;;5020637;28;20507;-76
2021/07/23 12:45:45;;;;;;;6.50;3.00;;;30.20;45.80;;;;;;5014100;28;20432;-78
2021/07/23 12:48:15;;;;;;;4.27;2.90;;;30.10;45.70;;;;;;5020857;28;20472;-78
2021/07/23 12:50:44;;;;;;;4.13;3.17;;;30.20;45.70;;;;;;5024359;28;20431;-78
2021/07/23 12:53:23;;;;;;;3.83;3.33;;;30.20;45.60;;;;;;5026964;28;20519;-80
2021/07/23 12:55:55;;;;;;;4.10;2.90;;;30.30;45.60;;;;;;5022989;28;20451;-78
2021/07/23 12:58:37;;;;;;;6.43;3.00;;;30.30;45.80;;;;;;5022773;28;20550;-75